sensor_id;sensor_type;location;lat;lon;timestamp;temperature;humidity
19813;DHT22;10066;48.108;11.448;2023-07-31T00:00:33;17.00;99.90
19813;DHT22;10066;48.108;11.448;2023-07-31T00:03:02;16.90;99.90
19813;DHT22;10066;48.108;11.448;2023-07-31T00:05:32;16.80;99.90
19813;DHT22;10066;48.108;11.448;2023-07-31T00:08:02;16.70;99.90
19813;DHT22;10066;48.108;11.448;2023-07-31T00:10:29;16.60;99.90
19813;DHT22;10066;48.108;11.448;2023-07-31T00:12:56;16.50;99.90
19813;DHT22;10066;48.108;11.448;2023-07-31T00:15:23;16.40;99.90
19813;DHT22;10066;48.108;11.448;2023-07-31T00:17:53;16.30;99.90
19813;DHT22;10066;48.108;11.448;2023-07-31T00:20:23;16.00;99.90
19813;DHT22;10066;48.108;11.448;2023-07-31T00:22:50;16.10;99.90
19813;DHT22;10066;48.108;11.448;2023-07-31T00:25:17;16.00;99.90
19813;DHT22;10066;48.108;11.448;2023-07-31T00:27:44;15.90;99.90
19813;DHT22;10066;48.108;11.448;2023-07-31T00:30:12;15.80;99.90
19813;DHT22;10066;48.108;11.448;2023-07-31T00:32:39;15.70;99.90
19813;DHT22;10066;48.108;11.448;2023-07-31T00:35:08;15.70;99.90
19813;DHT22;10066;48.108;11.448;2023-07-31T00:37:38;15.70;99.90
19813;DHT22;10066;48.108;11.448;2023-07-31T00:40:07;15.70;99.90
19813;DHT22;10066;48.108;11.448;2023-07-31T00:42:34;15.70;99.90
19813;DHT22;10066;48.108;11.448;2023-07-31T00:45:02;15.70;99.90
19813;DHT22;10066;48.108;11.448;2023-07-31T00:47:29;15.70;99.90
19813;DHT22;10066;48.108;11.448;2023-07-31T00:49:56;15.60;99.90
19813;DHT22;10066;48.108;11.448;2023-07-31T00:52:24;15.60;99.90
19813;DHT22;10066;48.108;11.448;2023-07-31T00:54:54;15.60;99.90
19813;DHT22;10066;48.108;11.448;2023-07-31T00:57:21;15.50;99.90
19813;DHT22;10066;48.108;11.448;2023-07-31T00:59:49;15.50;99.90
19813;DHT22;10066;48.108;11.448;2023-07-31T01:02:17;15.40;99.90
19813;DHT22;10066;48.108;11.448;2023-07-31T01:04:45;15.30;99.90
19813;DHT22;10066;48.108;11.448;2023-07-31T01:07:19;15.30;99.90
19813;DHT22;10066;48.108;11.448;2023-07-31T01:09:55;15.30;99.90
19813;DHT22;10066;48.108;11.448;2023-07-31T01:12:27;15.30;99.90
19813;DHT22;10066;48.108;11.448;2023-07-31T01:15:05;15.30;99.90
19813;DHT22;10066;48.108;11.448;2023-07-31T01:17:36;15.30;99.90
19813;DHT22;10066;48.108;11.448;2023-07-31T01:20:05;15.50;99.90
19813;DHT22;10066;48.108;11.448;2023-07-31T01:23:08;15.40;99.90
19813;DHT22;10066;48.108;11.448;2023-07-31T01:25:56;15.40;99.90
19813;DHT22;10066;48.108;11.448;2023-07-31T01:28:31;15.40;99.90
19813;DHT22;10066;48.108;11.448;2023-07-31T01:31:00;15.40;99.90
19813;DHT22;10066;48.108;11.448;2023-07-31T01:33:29;15.50;99.90
19813;DHT22;10066;48.108;11.448;2023-07-31T01:35:57;15.50;99.90
19813;DHT22;10066;48.108;11.448;2023-07-31T01:38:24;15.60;99.90
19813;DHT22;10066;48.108;11.448;2023-07-31T01:40:53;15.60;99.90
19813;DHT22;10066;48.108;11.448;2023-07-31T01:43:20;15.70;99.90
19813;DHT22;10066;48.108;11.448;2023-07-31T01:45:48;15.60;99.90
19813;DHT22;10066;48.108;11.448;2023-07-31T01:48:15;15.60;99.90
19813;DHT22;10066;48.108;11.448;2023-07-31T01:50:53;15.70;99.90
19813;DHT22;10066;48.108;11.448;2023-07-31T01:53:20;15.70;99.90
19813;DHT22;10066;48.108;11.448;2023-07-31T01:55:47;15.60;99.90
19813;DHT22;10066;48.108;11.448;2023-07-31T01:58:15;15.70;99.90
19813;DHT22;10066;48.108;11.448;2023-07-31T02:00:42;15.60;99.90
19813;DHT22;10066;48.108;11.448;2023-07-31T02:03:09;15.70;99.90
19813;DHT22;10066;48.108;11.448;2023-07-31T02:05:37;15.70;99.90
19813;DHT22;10066;48.108;11.448;2023-07-31T02:08:10;15.70;99.90
19813;DHT22;10066;48.108;11.448;2023-07-31T02:10:37;15.70;99.90
19813;DHT22;10066;48.108;11.448;2023-07-31T02:13:04;15.80;99.90
19813;DHT22;10066;48.108;11.448;2023-07-31T02:15:35;15.80;99.90
19813;DHT22;10066;48.108;11.448;2023-07-31T02:18:02;15.80;99.90
19813;DHT22;10066;48.108;11.448;2023-07-31T02:20:29;15.80;99.90
19813;DHT22;10066;48.108;11.448;2023-07-31T02:22:57;15.90;99.90
19813;DHT22;10066;48.108;11.448;2023-07-31T02:25:24;15.90;99.90
19813;DHT22;10066;48.108;11.448;2023-07-31T02:27:51;15.90;99.90
19813;DHT22;10066;48.108;11.448;2023-07-31T02:30:19;15.90;99.90
19813;DHT22;10066;48.108;11.448;2023-07-31T02:32:47;16.00;99.90
19813;DHT22;10066;48.108;11.448;2023-07-31T02:35:14;16.00;99.90
19813;DHT22;10066;48.108;11.448;2023-07-31T02:37:41;16.00;99.90
19813;DHT22;10066;48.108;11.448;2023-07-31T02:40:09;16.00;99.90
19813;DHT22;10066;48.108;11.448;2023-07-31T02:42:36;16.00;99.90
19813;DHT22;10066;48.108;11.448;2023-07-31T02:45:04;16.00;99.90
19813;DHT22;10066;48.108;11.448;2023-07-31T02:47:31;16.00;99.90
19813;DHT22;10066;48.108;11.448;2023-07-31T02:49:59;16.10;99.90
19813;DHT22;10066;48.108;11.448;2023-07-31T02:52:27;16.00;99.90
19813;DHT22;10066;48.108;11.448;2023-07-31T02:54:53;16.00;99.90
19813;DHT22;10066;48.108;11.448;2023-07-31T02:57:20;15.90;99.90
19813;DHT22;10066;48.108;11.448;2023-07-31T02:59:47;15.90;99.90
19813;DHT22;10066;48.108;11.448;2023-07-31T03:02:14;15.80;99.90
19813;DHT22;10066;48.108;11.448;2023-07-31T03:04:41;15.80;99.90
19813;DHT22;10066;48.108;11.448;2023-07-31T03:07:10;15.70;99.90
19813;DHT22;10066;48.108;11.448;2023-07-31T03:09:37;15.70;99.90
19813;DHT22;10066;48.108;11.448;2023-07-31T03:12:05;15.50;99.90
19813;DHT22;10066;48.108;11.448;2023-07-31T03:14:32;15.40;99.90
19813;DHT22;10066;48.108;11.448;2023-07-31T03:16:59;15.40;99.90
19813;DHT22;10066;48.108;11.448;2023-07-31T03:19:30;15.30;99.90
19813;DHT22;10066;48.108;11.448;2023-07-31T03:21:57;15.20;99.90
19813;DHT22;10066;48.108;11.448;2023-07-31T03:24:26;15.10;99.90
19813;DHT22;10066;48.108;11.448;2023-07-31T03:26:55;15.10;99.90
19813;DHT22;10066;48.108;11.448;2023-07-31T03:29:22;15.00;99.90
19813;DHT22;10066;48.108;11.448;2023-07-31T03:31:50;15.00;99.90
19813;DHT22;10066;48.108;11.448;2023-07-31T03:34:17;14.90;99.90
19813;DHT22;10066;48.108;11.448;2023-07-31T03:36:49;14.80;99.90
19813;DHT22;10066;48.108;11.448;2023-07-31T03:39:21;14.80;99.90
19813;DHT22;10066;48.108;11.448;2023-07-31T03:41:53;14.70;99.90
19813;DHT22;10066;48.108;11.448;2023-07-31T03:44:19;14.60;99.90
19813;DHT22;10066;48.108;11.448;2023-07-31T03:46:49;14.60;99.90
19813;DHT22;10066;48.108;11.448;2023-07-31T03:49:17;14.80;99.90
19813;DHT22;10066;48.108;11.448;2023-07-31T03:51:52;14.60;99.90
19813;DHT22;10066;48.108;11.448;2023-07-31T03:54:20;14.60;99.90
19813;DHT22;10066;48.108;11.448;2023-07-31T03:56:47;14.60;99.90
19813;DHT22;10066;48.108;11.448;2023-07-31T03:59:15;14.50;99.90
19813;DHT22;10066;48.108;11.448;2023-07-31T04:01:45;14.40;99.90
19813;DHT22;10066;48.108;11.448;2023-07-31T04:04:12;14.40;99.90
19813;DHT22;10066;48.108;11.448;2023-07-31T04:06:42;14.30;99.90
19813;DHT22;10066;48.108;11.448;2023-07-31T04:09:11;14.30;99.90
19813;DHT22;10066;48.108;11.448;2023-07-31T04:11:38;14.30;99.90
19813;DHT22;10066;48.108;11.448;2023-07-31T04:14:05;14.20;99.90
19813;DHT22;10066;48.108;11.448;2023-07-31T04:16:34;14.30;99.90
19813;DHT22;10066;48.108;11.448;2023-07-31T04:19:06;14.30;99.90
19813;DHT22;10066;48.108;11.448;2023-07-31T04:21:36;14.20;99.90
19813;DHT22;10066;48.108;11.448;2023-07-31T04:24:03;14.20;99.90
19813;DHT22;10066;48.108;11.448;2023-07-31T04:26:30;14.30;99.90
19813;DHT22;10066;48.108;11.448;2023-07-31T04:29:00;14.30;99.90
19813;DHT22;10066;48.108;11.448;2023-07-31T04:31:26;14.30;99.90
19813;DHT22;10066;48.108;11.448;2023-07-31T04:33:55;14.30;99.90
19813;DHT22;10066;48.108;11.448;2023-07-31T04:36:22;14.40;99.90
19813;DHT22;10066;48.108;11.448;2023-07-31T04:38:48;14.40;99.90
19813;DHT22;10066;48.108;11.448;2023-07-31T04:41:15;14.50;99.90
19813;DHT22;10066;48.108;11.448;2023-07-31T04:43:42;14.50;99.90
19813;DHT22;10066;48.108;11.448;2023-07-31T04:46:09;14.50;99.90
19813;DHT22;10066;48.108;11.448;2023-07-31T04:48:39;14.60;99.90
19813;DHT22;10066;48.108;11.448;2023-07-31T04:51:07;14.60;99.90
19813;DHT22;10066;48.108;11.448;2023-07-31T04:53:35;14.70;99.90
19813;DHT22;10066;48.108;11.448;2023-07-31T04:56:03;14.70;99.90
19813;DHT22;10066;48.108;11.448;2023-07-31T04:58:30;14.80;99.90
19813;DHT22;10066;48.108;11.448;2023-07-31T05:00:57;14.80;99.90
19813;DHT22;10066;48.108;11.448;2023-07-31T05:03:24;14.80;99.90
19813;DHT22;10066;48.108;11.448;2023-07-31T05:05:51;14.80;99.90
19813;DHT22;10066;48.108;11.448;2023-07-31T05:08:19;14.90;99.90
19813;DHT22;10066;48.108;11.448;2023-07-31T05:10:47;15.00;99.90
19813;DHT22;10066;48.108;11.448;2023-07-31T05:13:21;15.10;99.90
19813;DHT22;10066;48.108;11.448;2023-07-31T05:15:48;15.10;99.90
19813;DHT22;10066;48.108;11.448;2023-07-31T05:18:18;15.30;99.90
19813;DHT22;10066;48.108;11.448;2023-07-31T05:20:45;15.50;99.90
19813;DHT22;10066;48.108;11.448;2023-07-31T05:23:18;15.60;99.90
19813;DHT22;10066;48.108;11.448;2023-07-31T05:25:45;15.80;99.90
19813;DHT22;10066;48.108;11.448;2023-07-31T05:28:15;15.90;99.90
19813;DHT22;10066;48.108;11.448;2023-07-31T05:30:43;16.10;99.90
19813;DHT22;10066;48.108;11.448;2023-07-31T05:33:16;16.20;99.90
19813;DHT22;10066;48.108;11.448;2023-07-31T05:35:43;16.40;99.90
19813;DHT22;10066;48.108;11.448;2023-07-31T05:38:10;16.70;99.90
19813;DHT22;10066;48.108;11.448;2023-07-31T05:40:42;16.80;99.90
19813;DHT22;10066;48.108;11.448;2023-07-31T05:43:13;17.00;99.90
19813;DHT22;10066;48.108;11.448;2023-07-31T05:45:41;17.20;99.90
19813;DHT22;10066;48.108;11.448;2023-07-31T05:48:08;17.40;99.90
19813;DHT22;10066;48.108;11.448;2023-07-31T05:50:36;17.60;99.90
19813;DHT22;10066;48.108;11.448;2023-07-31T05:53:06;17.80;99.90
19813;DHT22;10066;48.108;11.448;2023-07-31T05:55:36;18.10;99.90
19813;DHT22;10066;48.108;11.448;2023-07-31T05:58:06;18.20;99.90
19813;DHT22;10066;48.108;11.448;2023-07-31T06:00:36;18.40;99.90
19813;DHT22;10066;48.108;11.448;2023-07-31T06:03:05;18.60;99.90
19813;DHT22;10066;48.108;11.448;2023-07-31T06:07:59;19.10;99.90
19813;DHT22;10066;48.108;11.448;2023-07-31T06:10:30;19.30;99.90
19813;DHT22;10066;48.108;11.448;2023-07-31T06:12:57;19.50;99.90
19813;DHT22;10066;48.108;11.448;2023-07-31T06:15:26;19.90;99.90
19813;DHT22;10066;48.108;11.448;2023-07-31T06:17:53;20.70;99.90
19813;DHT22;10066;48.108;11.448;2023-07-31T06:20:21;21.50;99.90
19813;DHT22;10066;48.108;11.448;2023-07-31T06:22:49;22.20;99.90
19813;DHT22;10066;48.108;11.448;2023-07-31T06:25:21;22.50;99.90
19813;DHT22;10066;48.108;11.448;2023-07-31T06:27:50;22.60;99.90
19813;DHT22;10066;48.108;11.448;2023-07-31T06:30:17;22.70;99.90
19813;DHT22;10066;48.108;11.448;2023-07-31T06:32:46;22.80;99.90
19813;DHT22;10066;48.108;11.448;2023-07-31T06:35:13;22.70;99.90
19813;DHT22;10066;48.108;11.448;2023-07-31T06:37:42;22.60;99.90
19813;DHT22;10066;48.108;11.448;2023-07-31T06:40:10;22.50;99.90
19813;DHT22;10066;48.108;11.448;2023-07-31T06:42:37;22.30;99.90
19813;DHT22;10066;48.108;11.448;2023-07-31T06:45:08;22.10;99.90
19813;DHT22;10066;48.108;11.448;2023-07-31T06:47:35;21.90;99.90
19813;DHT22;10066;48.108;11.448;2023-07-31T06:50:04;21.70;99.90
19813;DHT22;10066;48.108;11.448;2023-07-31T06:52:31;21.50;99.90
19813;DHT22;10066;48.108;11.448;2023-07-31T06:55:03;21.30;99.90
19813;DHT22;10066;48.108;11.448;2023-07-31T06:57:30;21.20;99.90
19813;DHT22;10066;48.108;11.448;2023-07-31T06:59:58;21.10;99.90
19813;DHT22;10066;48.108;11.448;2023-07-31T07:02:25;21.00;99.90
19813;DHT22;10066;48.108;11.448;2023-07-31T07:04:52;21.10;99.90
19813;DHT22;10066;48.108;11.448;2023-07-31T07:07:21;21.10;99.90
19813;DHT22;10066;48.108;11.448;2023-07-31T07:09:48;21.00;99.90
19813;DHT22;10066;48.108;11.448;2023-07-31T07:12:15;21.00;99.90
19813;DHT22;10066;48.108;11.448;2023-07-31T07:14:41;20.90;99.90
19813;DHT22;10066;48.108;11.448;2023-07-31T07:17:08;21.00;99.90
19813;DHT22;10066;48.108;11.448;2023-07-31T07:19:35;20.90;99.90
19813;DHT22;10066;48.108;11.448;2023-07-31T07:22:03;20.90;99.90
19813;DHT22;10066;48.108;11.448;2023-07-31T07:24:31;21.00;99.90
19813;DHT22;10066;48.108;11.448;2023-07-31T07:26:58;21.00;99.90
19813;DHT22;10066;48.108;11.448;2023-07-31T07:29:25;21.10;99.90
19813;DHT22;10066;48.108;11.448;2023-07-31T07:31:53;21.20;99.90
19813;DHT22;10066;48.108;11.448;2023-07-31T07:34:22;21.20;99.90
19813;DHT22;10066;48.108;11.448;2023-07-31T07:36:49;21.40;99.90
19813;DHT22;10066;48.108;11.448;2023-07-31T07:39:16;21.50;99.90
19813;DHT22;10066;48.108;11.448;2023-07-31T07:41:44;21.60;99.90
19813;DHT22;10066;48.108;11.448;2023-07-31T07:44:11;21.70;99.90
19813;DHT22;10066;48.108;11.448;2023-07-31T07:46:39;21.70;99.90
19813;DHT22;10066;48.108;11.448;2023-07-31T07:49:06;21.80;99.90
19813;DHT22;10066;48.108;11.448;2023-07-31T07:51:33;21.80;99.90
19813;DHT22;10066;48.108;11.448;2023-07-31T07:54:02;21.80;99.90
19813;DHT22;10066;48.108;11.448;2023-07-31T07:56:29;21.90;99.90
19813;DHT22;10066;48.108;11.448;2023-07-31T07:58:57;21.90;99.90
19813;DHT22;10066;48.108;11.448;2023-07-31T08:01:24;22.00;99.90
19813;DHT22;10066;48.108;11.448;2023-07-31T08:03:51;22.10;99.90
19813;DHT22;10066;48.108;11.448;2023-07-31T08:06:19;22.20;99.90
19813;DHT22;10066;48.108;11.448;2023-07-31T08:08:45;22.20;99.90
19813;DHT22;10066;48.108;11.448;2023-07-31T08:11:13;22.20;99.90
19813;DHT22;10066;48.108;11.448;2023-07-31T08:13:40;22.20;99.90
19813;DHT22;10066;48.108;11.448;2023-07-31T08:16:11;22.20;99.90
19813;DHT22;10066;48.108;11.448;2023-07-31T08:18:40;22.20;99.90
19813;DHT22;10066;48.108;11.448;2023-07-31T08:21:08;22.30;99.90
19813;DHT22;10066;48.108;11.448;2023-07-31T08:23:35;22.30;99.90
19813;DHT22;10066;48.108;11.448;2023-07-31T08:26:01;22.40;99.90
19813;DHT22;10066;48.108;11.448;2023-07-31T08:28:28;22.50;99.90
19813;DHT22;10066;48.108;11.448;2023-07-31T08:30:55;22.60;99.90
19813;DHT22;10066;48.108;11.448;2023-07-31T08:33:23;22.90;99.90
19813;DHT22;10066;48.108;11.448;2023-07-31T08:35:50;23.10;99.90
19813;DHT22;10066;48.108;11.448;2023-07-31T08:38:17;23.20;99.90
19813;DHT22;10066;48.108;11.448;2023-07-31T08:40:45;23.20;99.90
19813;DHT22;10066;48.108;11.448;2023-07-31T08:43:12;23.00;99.90
19813;DHT22;10066;48.108;11.448;2023-07-31T08:45:42;22.90;99.90
19813;DHT22;10066;48.108;11.448;2023-07-31T08:48:09;22.90;99.90
19813;DHT22;10066;48.108;11.448;2023-07-31T08:50:38;22.90;99.90
19813;DHT22;10066;48.108;11.448;2023-07-31T08:53:05;22.90;99.90
19813;DHT22;10066;48.108;11.448;2023-07-31T08:55:32;22.80;99.90
19813;DHT22;10066;48.108;11.448;2023-07-31T08:58:01;22.70;99.90
19813;DHT22;10066;48.108;11.448;2023-07-31T09:00:32;22.60;99.90
19813;DHT22;10066;48.108;11.448;2023-07-31T09:03:00;22.50;99.90
19813;DHT22;10066;48.108;11.448;2023-07-31T09:05:29;22.40;99.90
19813;DHT22;10066;48.108;11.448;2023-07-31T09:07:58;22.40;99.90
19813;DHT22;10066;48.108;11.448;2023-07-31T09:10:26;22.30;99.90
19813;DHT22;10066;48.108;11.448;2023-07-31T09:12:54;22.10;99.90
19813;DHT22;10066;48.108;11.448;2023-07-31T09:15:23;22.10;99.90
19813;DHT22;10066;48.108;11.448;2023-07-31T09:17:59;22.10;99.90
19813;DHT22;10066;48.108;11.448;2023-07-31T09:20:26;22.20;99.90
19813;DHT22;10066;48.108;11.448;2023-07-31T09:22:55;22.30;99.90
19813;DHT22;10066;48.108;11.448;2023-07-31T09:25:24;22.50;99.90
19813;DHT22;10066;48.108;11.448;2023-07-31T09:27:54;22.60;99.90
19813;DHT22;10066;48.108;11.448;2023-07-31T09:30:22;22.60;99.90
19813;DHT22;10066;48.108;11.448;2023-07-31T09:32:51;22.70;99.90
19813;DHT22;10066;48.108;11.448;2023-07-31T09:35:22;22.80;99.90
19813;DHT22;10066;48.108;11.448;2023-07-31T09:37:51;22.90;99.90
19813;DHT22;10066;48.108;11.448;2023-07-31T09:40:30;23.00;99.90
19813;DHT22;10066;48.108;11.448;2023-07-31T09:43:01;23.10;99.90
19813;DHT22;10066;48.108;11.448;2023-07-31T09:45:28;23.10;99.90
19813;DHT22;10066;48.108;11.448;2023-07-31T09:47:56;23.20;99.90
19813;DHT22;10066;48.108;11.448;2023-07-31T09:50:24;23.40;99.90
19813;DHT22;10066;48.108;11.448;2023-07-31T09:52:51;23.50;99.90
19813;DHT22;10066;48.108;11.448;2023-07-31T09:55:19;23.60;99.90
19813;DHT22;10066;48.108;11.448;2023-07-31T09:57:50;23.60;99.90
19813;DHT22;10066;48.108;11.448;2023-07-31T10:00:20;23.60;99.90
19813;DHT22;10066;48.108;11.448;2023-07-31T10:02:51;23.70;99.90
19813;DHT22;10066;48.108;11.448;2023-07-31T10:05:19;23.80;99.90
19813;DHT22;10066;48.108;11.448;2023-07-31T10:07:52;23.70;99.90
19813;DHT22;10066;48.108;11.448;2023-07-31T10:10:22;23.70;99.90
19813;DHT22;10066;48.108;11.448;2023-07-31T10:12:52;23.60;99.90
19813;DHT22;10066;48.108;11.448;2023-07-31T10:15:20;23.50;99.90
19813;DHT22;10066;48.108;11.448;2023-07-31T10:17:50;23.50;99.90
19813;DHT22;10066;48.108;11.448;2023-07-31T10:20:17;23.60;99.90
19813;DHT22;10066;48.108;11.448;2023-07-31T10:22:44;23.60;99.90
19813;DHT22;10066;48.108;11.448;2023-07-31T10:25:12;23.70;99.90
19813;DHT22;10066;48.108;11.448;2023-07-31T10:27:40;23.70;99.90
19813;DHT22;10066;48.108;11.448;2023-07-31T10:30:12;23.80;99.90
19813;DHT22;10066;48.108;11.448;2023-07-31T10:32:41;23.90;99.90
19813;DHT22;10066;48.108;11.448;2023-07-31T10:35:10;23.80;98.90
19813;DHT22;10066;48.108;11.448;2023-07-31T10:37:39;23.70;99.90
19813;DHT22;10066;48.108;11.448;2023-07-31T10:40:10;23.80;99.90
19813;DHT22;10066;48.108;11.448;2023-07-31T10:42:45;23.80;99.90
19813;DHT22;10066;48.108;11.448;2023-07-31T10:45:24;23.80;98.70
19813;DHT22;10066;48.108;11.448;2023-07-31T10:47:58;23.70;98.60
19813;DHT22;10066;48.108;11.448;2023-07-31T10:50:26;23.70;99.90
19813;DHT22;10066;48.108;11.448;2023-07-31T10:52:55;23.70;99.90
19813;DHT22;10066;48.108;11.448;2023-07-31T10:55:29;23.80;99.90
19813;DHT22;10066;48.108;11.448;2023-07-31T10:57:57;23.80;99.90
19813;DHT22;10066;48.108;11.448;2023-07-31T11:00:28;23.80;99.90
19813;DHT22;10066;48.108;11.448;2023-07-31T11:03:00;23.80;99.90
19813;DHT22;10066;48.108;11.448;2023-07-31T11:05:47;23.80;99.90
19813;DHT22;10066;48.108;11.448;2023-07-31T11:08:16;23.80;98.90
19813;DHT22;10066;48.108;11.448;2023-07-31T11:10:45;23.80;99.90
19813;DHT22;10066;48.108;11.448;2023-07-31T11:13:13;23.70;99.90
19813;DHT22;10066;48.108;11.448;2023-07-31T11:15:41;23.70;99.90
19813;DHT22;10066;48.108;11.448;2023-07-31T11:18:08;23.80;99.90
19813;DHT22;10066;48.108;11.448;2023-07-31T11:20:37;23.80;99.90
19813;DHT22;10066;48.108;11.448;2023-07-31T11:23:07;23.70;99.40
19813;DHT22;10066;48.108;11.448;2023-07-31T11:25:35;23.50;99.70
19813;DHT22;10066;48.108;11.448;2023-07-31T11:28:04;23.40;99.90
19813;DHT22;10066;48.108;11.448;2023-07-31T11:30:31;23.30;99.90
19813;DHT22;10066;48.108;11.448;2023-07-31T11:33:01;23.30;99.90
19813;DHT22;10066;48.108;11.448;2023-07-31T11:35:30;23.30;99.90
19813;DHT22;10066;48.108;11.448;2023-07-31T11:37:57;23.30;99.90
19813;DHT22;10066;48.108;11.448;2023-07-31T11:40:24;23.40;99.90
19813;DHT22;10066;48.108;11.448;2023-07-31T11:42:58;23.50;99.90
19813;DHT22;10066;48.108;11.448;2023-07-31T11:45:26;23.60;99.90
19813;DHT22;10066;48.108;11.448;2023-07-31T11:47:54;23.80;99.90
19813;DHT22;10066;48.108;11.448;2023-07-31T11:50:24;23.80;99.90
19813;DHT22;10066;48.108;11.448;2023-07-31T11:52:54;23.90;99.90
19813;DHT22;10066;48.108;11.448;2023-07-31T11:55:22;23.90;99.90
19813;DHT22;10066;48.108;11.448;2023-07-31T11:57:50;24.00;99.90
19813;DHT22;10066;48.108;11.448;2023-07-31T12:00:18;24.10;99.90
19813;DHT22;10066;48.108;11.448;2023-07-31T12:02:46;24.10;98.70
19813;DHT22;10066;48.108;11.448;2023-07-31T12:05:13;24.00;96.40
19813;DHT22;10066;48.108;11.448;2023-07-31T12:07:46;24.00;97.30
19813;DHT22;10066;48.108;11.448;2023-07-31T12:10:23;24.00;97.80
19813;DHT22;10066;48.108;11.448;2023-07-31T12:12:56;24.00;95.60
19813;DHT22;10066;48.108;11.448;2023-07-31T12:15:35;23.90;95.60
19813;DHT22;10066;48.108;11.448;2023-07-31T12:18:08;23.90;97.30
19813;DHT22;10066;48.108;11.448;2023-07-31T12:20:35;23.90;97.70
19813;DHT22;10066;48.108;11.448;2023-07-31T12:23:13;23.90;98.00
19813;DHT22;10066;48.108;11.448;2023-07-31T12:25:41;24.00;98.40
19813;DHT22;10066;48.108;11.448;2023-07-31T12:28:08;24.10;99.90
19813;DHT22;10066;48.108;11.448;2023-07-31T12:30:38;24.30;99.90
19813;DHT22;10066;48.108;11.448;2023-07-31T12:33:12;24.50;99.40
19813;DHT22;10066;48.108;11.448;2023-07-31T12:35:45;24.60;99.30
19813;DHT22;10066;48.108;11.448;2023-07-31T12:38:14;24.90;98.70
19813;DHT22;10066;48.108;11.448;2023-07-31T12:40:41;25.10;98.40
19813;DHT22;10066;48.108;11.448;2023-07-31T12:43:09;25.20;97.70
19813;DHT22;10066;48.108;11.448;2023-07-31T12:45:36;25.30;97.00
19813;DHT22;10066;48.108;11.448;2023-07-31T12:48:03;25.40;97.40
19813;DHT22;10066;48.108;11.448;2023-07-31T12:50:30;25.50;96.70
19813;DHT22;10066;48.108;11.448;2023-07-31T12:52:57;25.60;96.80
19813;DHT22;10066;48.108;11.448;2023-07-31T12:55:26;25.70;96.60
19813;DHT22;10066;48.108;11.448;2023-07-31T12:57:54;25.80;95.90
19813;DHT22;10066;48.108;11.448;2023-07-31T13:00:21;25.70;91.40
19813;DHT22;10066;48.108;11.448;2023-07-31T13:02:47;25.50;91.90
19813;DHT22;10066;48.108;11.448;2023-07-31T13:05:14;25.30;93.00
19813;DHT22;10066;48.108;11.448;2023-07-31T13:07:41;25.20;91.00
19813;DHT22;10066;48.108;11.448;2023-07-31T13:10:11;25.10;93.80
19813;DHT22;10066;48.108;11.448;2023-07-31T13:12:42;25.00;94.10
19813;DHT22;10066;48.108;11.448;2023-07-31T13:15:09;25.00;93.70
19813;DHT22;10066;48.108;11.448;2023-07-31T13:17:36;25.00;94.40
19813;DHT22;10066;48.108;11.448;2023-07-31T13:20:05;25.00;94.00
19813;DHT22;10066;48.108;11.448;2023-07-31T13:22:32;25.20;95.20
19813;DHT22;10066;48.108;11.448;2023-07-31T13:25:00;25.40;95.60
19813;DHT22;10066;48.108;11.448;2023-07-31T13:27:27;25.50;95.30
19813;DHT22;10066;48.108;11.448;2023-07-31T13:29:55;25.50;94.00
19813;DHT22;10066;48.108;11.448;2023-07-31T13:32:22;25.60;93.90
19813;DHT22;10066;48.108;11.448;2023-07-31T13:34:49;25.60;94.30
19813;DHT22;10066;48.108;11.448;2023-07-31T13:37:16;25.60;94.00
19813;DHT22;10066;48.108;11.448;2023-07-31T13:39:43;25.60;94.50
19813;DHT22;10066;48.108;11.448;2023-07-31T13:42:10;25.60;94.70
19813;DHT22;10066;48.108;11.448;2023-07-31T13:44:38;25.60;94.60
19813;DHT22;10066;48.108;11.448;2023-07-31T13:47:07;25.60;94.70
19813;DHT22;10066;48.108;11.448;2023-07-31T13:49:35;25.60;93.70
19813;DHT22;10066;48.108;11.448;2023-07-31T13:52:03;25.50;94.30
19813;DHT22;10066;48.108;11.448;2023-07-31T13:54:30;25.40;93.70
19813;DHT22;10066;48.108;11.448;2023-07-31T13:56:57;25.30;93.20
19813;DHT22;10066;48.108;11.448;2023-07-31T13:59:24;25.20;93.10
19813;DHT22;10066;48.108;11.448;2023-07-31T14:01:51;25.10;93.80
19813;DHT22;10066;48.108;11.448;2023-07-31T14:04:19;25.10;93.40
19813;DHT22;10066;48.108;11.448;2023-07-31T14:06:46;25.00;93.70
19813;DHT22;10066;48.108;11.448;2023-07-31T14:09:13;25.00;94.10
19813;DHT22;10066;48.108;11.448;2023-07-31T14:11:41;24.90;93.10
19813;DHT22;10066;48.108;11.448;2023-07-31T14:14:09;24.90;94.50
19813;DHT22;10066;48.108;11.448;2023-07-31T14:16:35;25.00;94.60
19813;DHT22;10066;48.108;11.448;2023-07-31T14:19:02;25.10;94.80
19813;DHT22;10066;48.108;11.448;2023-07-31T14:21:31;25.20;94.40
19813;DHT22;10066;48.108;11.448;2023-07-31T14:23:58;25.30;94.20
19813;DHT22;10066;48.108;11.448;2023-07-31T14:26:25;25.20;93.00
19813;DHT22;10066;48.108;11.448;2023-07-31T14:28:52;25.20;94.00
19813;DHT22;10066;48.108;11.448;2023-07-31T14:31:19;25.00;93.90
19813;DHT22;10066;48.108;11.448;2023-07-31T14:33:46;24.90;93.00
19813;DHT22;10066;48.108;11.448;2023-07-31T14:36:13;24.90;93.00
19813;DHT22;10066;48.108;11.448;2023-07-31T14:38:42;24.80;92.90
19813;DHT22;10066;48.108;11.448;2023-07-31T14:41:09;24.80;93.10
19813;DHT22;10066;48.108;11.448;2023-07-31T14:43:35;24.90;92.80
19813;DHT22;10066;48.108;11.448;2023-07-31T14:46:02;24.90;93.20
19813;DHT22;10066;48.108;11.448;2023-07-31T14:48:29;24.90;93.10
19813;DHT22;10066;48.108;11.448;2023-07-31T14:50:56;24.90;92.90
19813;DHT22;10066;48.108;11.448;2023-07-31T14:53:23;25.00;92.10
19813;DHT22;10066;48.108;11.448;2023-07-31T14:55:52;25.00;93.00
19813;DHT22;10066;48.108;11.448;2023-07-31T14:58:19;25.10;92.40
19813;DHT22;10066;48.108;11.448;2023-07-31T15:00:47;25.20;93.20
19813;DHT22;10066;48.108;11.448;2023-07-31T15:03:15;25.30;93.00
19813;DHT22;10066;48.108;11.448;2023-07-31T15:05:42;25.40;93.70
19813;DHT22;10066;48.108;11.448;2023-07-31T15:08:09;25.50;93.80
19813;DHT22;10066;48.108;11.448;2023-07-31T15:10:35;25.60;93.30
19813;DHT22;10066;48.108;11.448;2023-07-31T15:13:04;25.60;92.00
19813;DHT22;10066;48.108;11.448;2023-07-31T15:15:30;25.60;92.40
19813;DHT22;10066;48.108;11.448;2023-07-31T15:17:57;25.60;92.50
19813;DHT22;10066;48.108;11.448;2023-07-31T15:20:24;25.50;92.40
19813;DHT22;10066;48.108;11.448;2023-07-31T15:22:51;25.50;92.50
19813;DHT22;10066;48.108;11.448;2023-07-31T15:25:18;25.50;91.30